RYR42A EGJJ-EGKK
Flight info
| Callsign | RYR42A |
|---|---|
| Flight time | N/A |
| Altitude | 23000 |
| Route | ORIST L982 VASUX |
| Aircraft | B738/M-SDE2E3FGHIRWXY/LB1 |
Departure
| Time | 2026-05-07 17:38 |
|---|---|
| Airport | Jersey Airport (EGJJ) |
Arrival
| Time | N/A |
|---|---|
| Airport | London Gatwick Airport (EGKK) |
| Time | Latitude | Longitude | Altitude | Speed | Heading |
|---|---|---|---|---|---|
| 2026-05-07 17:09 | 49.20556 | -2.19699 | 270 ft | 0 kts | 173° |
| 2026-05-07 17:31 | 49.20559 | -2.19699 | 270 ft | 2 kts | 173° |
| 2026-05-07 17:31 | 49.20574 | -2.19700 | 270 ft | 2 kts | 184° |
| 2026-05-07 17:31 | 49.20589 | -2.19698 | 270 ft | 2 kts | 189° |
| 2026-05-07 17:32 | 49.20604 | -2.19693 | 270 ft | 2 kts | 197° |
| 2026-05-07 17:32 | 49.20617 | -2.19685 | 270 ft | 2 kts | 205° |
| 2026-05-07 17:32 | 49.20631 | -2.19675 | 270 ft | 2 kts | 212° |
| 2026-05-07 17:32 | 49.20639 | -2.19667 | 270 ft | 1 kts | 213° |
| 2026-05-07 17:33 | 49.20641 | -2.19665 | 270 ft | 0 kts | 212° |
| 2026-05-07 17:34 | 49.20639 | -2.19666 | 270 ft | 1 kts | 213° |
| 2026-05-07 17:34 | 49.20618 | -2.19708 | 270 ft | 8 kts | 246° |
| 2026-05-07 17:35 | 49.20604 | -2.19829 | 267 ft | 13 kts | 263° |
| 2026-05-07 17:35 | 49.20574 | -2.19925 | 267 ft | 9 kts | 196° |
| 2026-05-07 17:35 | 49.20518 | -2.19953 | 267 ft | 8 kts | 242° |
| 2026-05-07 17:35 | 49.20527 | -2.20041 | 267 ft | 8 kts | 289° |
| 2026-05-07 17:36 | 49.20546 | -2.20129 | 267 ft | 8 kts | 288° |
| 2026-05-07 17:36 | 49.20565 | -2.20238 | 266 ft | 13 kts | 285° |
| 2026-05-07 17:36 | 49.20589 | -2.20367 | 263 ft | 14 kts | 287° |
| 2026-05-07 17:36 | 49.20621 | -2.20539 | 255 ft | 16 kts | 281° |
| 2026-05-07 17:37 | 49.20635 | -2.20680 | 246 ft | 12 kts | 308° |
| 2026-05-07 17:37 | 49.20696 | -2.20673 | 248 ft | 7 kts | 50° |
| 2026-05-07 17:37 | 49.20704 | -2.20630 | 251 ft | 3 kts | 83° |
| 2026-05-07 17:37 | 49.20731 | -2.20303 | 265 ft | 68 kts | 83° |
| 2026-05-07 17:38 | 49.20822 | -2.19206 | 274 ft | 137 kts | 82° |
| 2026-05-07 17:38 | 49.20956 | -2.17619 | 763 ft | 154 kts | 85° |
| 2026-05-07 17:38 | 49.21096 | -2.16035 | 1565 ft | 156 kts | 85° |
| 2026-05-07 17:38 | 49.21235 | -2.14345 | 1983 ft | 169 kts | 86° |
| 2026-05-07 17:39 | 49.21381 | -2.12489 | 1740 ft | 176 kts | 85° |
| 2026-05-07 17:39 | 49.21534 | -2.10634 | 1771 ft | 184 kts | 85° |
| 2026-05-07 17:39 | 49.21716 | -2.08456 | 1767 ft | 220 kts | 83° |
| 2026-05-07 17:39 | 49.22201 | -2.06182 | 1992 ft | 232 kts | 59° |
| 2026-05-07 17:40 | 49.23438 | -2.04554 | 2535 ft | 249 kts | 25° |
| 2026-05-07 17:40 | 49.25155 | -2.04077 | 3143 ft | 255 kts | 3° |
| 2026-05-07 17:40 | 49.26939 | -2.04138 | 3723 ft | 260 kts | 359° |
| 2026-05-07 17:40 | 49.28795 | -2.04206 | 4502 ft | 271 kts | 1° |
| 2026-05-07 17:41 | 49.30665 | -2.04180 | 5486 ft | 277 kts | 2° |
| 2026-05-07 17:41 | 49.32609 | -2.04093 | 6492 ft | 281 kts | 2° |
| 2026-05-07 17:41 | 49.34542 | -2.03986 | 7477 ft | 286 kts | 2° |
| 2026-05-07 17:41 | 49.36535 | -2.03874 | 8488 ft | 290 kts | 1° |
| 2026-05-07 17:42 | 49.38557 | -2.03762 | 9479 ft | 295 kts | 1° |
| 2026-05-07 17:42 | 49.40617 | -2.03655 | 10445 ft | 299 kts | 0° |
| 2026-05-07 17:42 | 49.42740 | -2.03549 | 11070 ft | 315 kts | 0° |
| 2026-05-07 17:42 | 49.44980 | -2.03436 | 11685 ft | 330 kts | 1° |
| 2026-05-07 17:43 | 49.47336 | -2.03315 | 12270 ft | 345 kts | 1° |
| 2026-05-07 17:43 | 49.49776 | -2.03187 | 12851 ft | 361 kts | 1° |
| 2026-05-07 17:43 | 49.52299 | -2.03053 | 13586 ft | 369 kts | 1° |
| 2026-05-07 17:43 | 49.54896 | -2.02914 | 14417 ft | 375 kts | 1° |
| 2026-05-07 17:44 | 49.57500 | -2.02775 | 15263 ft | 380 kts | 1° |
| 2026-05-07 17:44 | 49.60173 | -2.02632 | 16110 ft | 384 kts | 1° |
| 2026-05-07 17:44 | 49.62861 | -2.02489 | 16919 ft | 390 kts | 1° |
| 2026-05-07 17:44 | 49.65556 | -2.02347 | 17713 ft | 394 kts | 1° |
| 2026-05-07 17:45 | 49.68339 | -2.02200 | 18469 ft | 399 kts | 0° |
| 2026-05-07 17:45 | 49.71120 | -2.02053 | 19237 ft | 404 kts | 0° |
| 2026-05-07 17:45 | 49.73940 | -2.01905 | 19984 ft | 409 kts | 0° |
| 2026-05-07 17:45 | 49.76820 | -2.01591 | 20709 ft | 414 kts | 6° |
| 2026-05-07 17:46 | 49.79659 | -2.00712 | 21447 ft | 419 kts | 15° |
| 2026-05-07 17:46 | 49.82426 | -1.99139 | 22175 ft | 424 kts | 23° |
| 2026-05-07 17:46 | 49.85093 | -1.97173 | 22816 ft | 427 kts | 26° |
| 2026-05-07 17:46 | 49.87688 | -1.95055 | 22994 ft | 413 kts | 28° |
| 2026-05-07 17:47 | 49.90153 | -1.92960 | 23007 ft | 395 kts | 28° |
| 2026-05-07 17:47 | 49.92500 | -1.90943 | 23006 ft | 378 kts | 28° |
| 2026-05-07 17:47 | 49.94760 | -1.89006 | 23009 ft | 363 kts | 28° |
| 2026-05-07 17:47 | 49.96936 | -1.87107 | 23009 ft | 361 kts | 31° |
| 2026-05-07 17:48 | 49.98989 | -1.84858 | 23009 ft | 365 kts | 38° |
| 2026-05-07 17:48 | 50.00951 | -1.82314 | 23009 ft | 364 kts | 41° |
| 2026-05-07 17:48 | 50.02851 | -1.79707 | 23005 ft | 364 kts | 41° |
| 2026-05-07 17:48 | 50.04757 | -1.77085 | 23002 ft | 365 kts | 41° |
| 2026-05-07 17:49 | 50.06681 | -1.74467 | 22999 ft | 365 kts | 40° |
| 2026-05-07 17:49 | 50.08590 | -1.71904 | 22997 ft | 366 kts | 40° |
| 2026-05-07 17:49 | 50.10551 | -1.69321 | 22995 ft | 365 kts | 39° |
| 2026-05-07 17:49 | 50.12490 | -1.66800 | 22997 ft | 364 kts | 39° |
| 2026-05-07 17:50 | 50.14446 | -1.64266 | 22998 ft | 364 kts | 39° |
| 2026-05-07 17:50 | 50.16394 | -1.61738 | 22997 ft | 364 kts | 39° |
| 2026-05-07 17:50 | 50.18362 | -1.59177 | 22897 ft | 376 kts | 39° |
| 2026-05-07 17:50 | 50.20442 | -1.56462 | 22641 ft | 399 kts | 39° |
| 2026-05-07 17:51 | 50.22596 | -1.53644 | 22368 ft | 404 kts | 39° |
| 2026-05-07 17:51 | 50.24720 | -1.50858 | 22099 ft | 400 kts | 39° |
| 2026-05-07 17:51 | 50.26850 | -1.48058 | 21829 ft | 398 kts | 39° |
| 2026-05-07 17:51 | 50.28979 | -1.45254 | 21564 ft | 397 kts | 39° |
| 2026-05-07 17:52 | 50.31087 | -1.42476 | 21302 ft | 396 kts | 39° |
| 2026-05-07 17:52 | 50.33189 | -1.39702 | 21044 ft | 393 kts | 39° |
| 2026-05-07 17:52 | 50.35259 | -1.36965 | 21002 ft | 391 kts | 39° |
| 2026-05-07 17:52 | 50.37339 | -1.34212 | 21007 ft | 394 kts | 40° |
| 2026-05-07 17:53 | 50.39449 | -1.31417 | 21005 ft | 395 kts | 40° |
| 2026-05-07 17:53 | 50.41553 | -1.28626 | 21006 ft | 395 kts | 40° |
| 2026-05-07 17:53 | 50.43636 | -1.25860 | 21004 ft | 394 kts | 40° |
| 2026-05-07 17:53 | 50.45728 | -1.23078 | 21005 ft | 394 kts | 40° |
| 2026-05-07 17:54 | 50.47844 | -1.20261 | 21007 ft | 394 kts | 40° |
| 2026-05-07 17:54 | 50.49914 | -1.17503 | 21004 ft | 393 kts | 40° |
| 2026-05-07 17:54 | 50.51997 | -1.14723 | 20817 ft | 395 kts | 40° |
| 2026-05-07 17:54 | 50.54090 | -1.11927 | 20550 ft | 391 kts | 40° |
| 2026-05-07 17:55 | 50.56173 | -1.09140 | 20284 ft | 388 kts | 40° |
| 2026-05-07 17:55 | 50.58235 | -1.06378 | 20021 ft | 387 kts | 40° |
| 2026-05-07 17:55 | 50.60255 | -1.03669 | 19761 ft | 386 kts | 40° |
| 2026-05-07 17:55 | 50.62296 | -1.00929 | 19506 ft | 385 kts | 40° |
| 2026-05-07 17:56 | 50.64341 | -0.98181 | 19244 ft | 384 kts | 40° |
| 2026-05-07 17:56 | 50.66357 | -0.95468 | 18987 ft | 383 kts | 40° |
| 2026-05-07 17:56 | 50.68395 | -0.92722 | 18727 ft | 381 kts | 40° |
| 2026-05-07 17:56 | 50.70397 | -0.90020 | 18472 ft | 379 kts | 40° |
| 2026-05-07 17:57 | 50.72393 | -0.87323 | 18216 ft | 377 kts | 40° |
| 2026-05-07 17:57 | 50.73743 | -0.85497 | 18040 ft | 376 kts | 40° |
| 2026-05-07 17:57 | 50.76371 | -0.81940 | 17708 ft | 374 kts | 40° |
| 2026-05-07 17:57 | 50.78323 | -0.79290 | 17449 ft | 365 kts | 40° |
| 2026-05-07 17:58 | 50.80089 | -0.76491 | 17180 ft | 355 kts | 50° |
| 2026-05-07 17:58 | 50.81334 | -0.73195 | 16933 ft | 345 kts | 69° |
| 2026-05-07 17:58 | 50.81929 | -0.69620 | 16686 ft | 334 kts | 79° |
| 2026-05-07 17:58 | 50.82330 | -0.66044 | 16424 ft | 326 kts | 81° |
| 2026-05-07 17:59 | 50.82702 | -0.62468 | 15919 ft | 328 kts | 81° |
| 2026-05-07 17:59 | 50.83076 | -0.58923 | 15335 ft | 331 kts | 81° |
| 2026-05-07 17:59 | 50.83471 | -0.55330 | 14764 ft | 333 kts | 81° |
| 2026-05-07 17:59 | 50.83883 | -0.51681 | 14168 ft | 335 kts | 81° |
| 2026-05-07 18:00 | 50.84294 | -0.48098 | 13601 ft | 336 kts | 80° |
| 2026-05-07 18:00 | 50.84709 | -0.44490 | 13005 ft | 337 kts | 80° |
| 2026-05-07 18:00 | 50.85132 | -0.40806 | 12422 ft | 338 kts | 80° |
| 2026-05-07 18:00 | 50.85547 | -0.37185 | 11850 ft | 338 kts | 80° |
| 2026-05-07 18:01 | 50.85968 | -0.33488 | 11251 ft | 338 kts | 81° |
| 2026-05-07 18:01 | 50.86383 | -0.29840 | 10674 ft | 333 kts | 81° |
| 2026-05-07 18:01 | 50.86786 | -0.26288 | 10102 ft | 328 kts | 81° |
| 2026-05-07 18:01 | 50.87255 | -0.22795 | 9517 ft | 324 kts | 71° |
| 2026-05-07 18:02 | 50.90288 | -0.18039 | 8350 ft | 313 kts | 15° |
| 2026-05-07 18:02 | 50.92433 | -0.17730 | 7783 ft | 307 kts | 357° |
| 2026-05-07 18:02 | 50.94522 | -0.18047 | 7227 ft | 302 kts | 353° |
| 2026-05-07 18:03 | 50.96575 | -0.18487 | 7049 ft | 287 kts | 352° |
| 2026-05-07 18:03 | 50.98517 | -0.18924 | 7024 ft | 283 kts | 352° |
| 2026-05-07 18:03 | 51.00434 | -0.19581 | 7033 ft | 281 kts | 339° |
| 2026-05-07 18:03 | 51.02122 | -0.21157 | 7038 ft | 281 kts | 319° |
| 2026-05-07 18:04 | 51.03345 | -0.23527 | 7035 ft | 280 kts | 298° |
| 2026-05-07 18:04 | 51.03979 | -0.26418 | 7040 ft | 279 kts | 279° |
| 2026-05-07 18:04 | 51.04167 | -0.29474 | 7037 ft | 278 kts | 272° |
| 2026-05-07 18:04 | 51.04247 | -0.32551 | 7035 ft | 278 kts | 271° |
| 2026-05-07 18:05 | 51.04309 | -0.35616 | 7037 ft | 278 kts | 271° |
| 2026-05-07 18:05 | 51.04364 | -0.38669 | 7032 ft | 279 kts | 271° |
| 2026-05-07 18:05 | 51.04417 | -0.41782 | 7034 ft | 278 kts | 271° |
| 2026-05-07 18:05 | 51.04469 | -0.44836 | 6939 ft | 281 kts | 271° |
| 2026-05-07 18:06 | 51.04520 | -0.47948 | 6462 ft | 284 kts | 271° |
| 2026-05-07 18:06 | 51.04565 | -0.51080 | 5971 ft | 281 kts | 271° |
| 2026-05-07 18:06 | 51.04792 | -0.54122 | 5476 ft | 278 kts | 287° |
| 2026-05-07 18:06 | 51.05610 | -0.56846 | 5002 ft | 269 kts | 308° |
| 2026-05-07 18:07 | 51.06930 | -0.58840 | 4530 ft | 261 kts | 329° |
| 2026-05-07 18:07 | 51.07314 | -0.59195 | 4413 ft | 259 kts | 335° |